Sprague River, OR (97639)

5:48 AM PDT on July 27, 2016 (GMT -0700)
Soaring Eagles Ranch | | Change Station

Elev 4314 ft 42.58 °N, 121.74 °W | Updated 3 minutes ago

Clear
Clear
46.0 °F
Feels Like 46 °F
N
0.0
Wind Variable Wind from West

Today
High -- | Low -- °F
--% Chance of Precip.
Yesterday
High -- | Low -- °F
Precip. -- in
Pressure 29.98 in
Visibility 10.0 miles
Clouds Clear
Windchill 46 °F
Dew Point 41 °F
Humidity 84%
Rainfall 0.00 in
Snow Depth Not available.
5:53 AM 8:30 PM
Last Quarter, 43% visible
METAR KLMT 271153Z AUTO 16004KT 10SM CLR 12/10 A3012 RMK AO2 SLP152 T01170100 10217 20117 53003
Pressure 29.98 in
Visibility 10.0 miles
Clouds Clear
Windchill 46 °F
Dew Point 41 °F
Humidity 84%
Rainfall 0.00 in
Snow Depth Not available.
5:53 AM 8:30 PM
Last Quarter, 43% visible
METAR KLMT 271153Z AUTO 16004KT 10SM CLR 12/10 A3012 RMK AO2 SLP152 T01170100 10217 20117 53003

10-Day Weather Forecast

Almanac

Astronomy

Jul. 27, 2016 Rise Set
Actual Time
Civil Twilight
Nautical Twilight
Astronomical Twilight
Moon
Length of Visible Light
Length of Day
Tomorrow will be .
, % of the Moon is Illuminated

Today's Extremes

State Highs State Lows

Community

WunderPhotos

Upload Photos

1,927,841 photos uploaded!

WunderBlog® & News

Nearby

Air Quality

  Air Quality AQ Index Pollutant
Not available.

Snow Depth

Station Depth Elevation

Earthquake Activity

City Distance Mag. Time & Date
Minimum magnitude displayed is 2.5.

Coastal Water Temperatures

Place Temperature

Stations

Nearby Weather Stations

Station Location Temp. Windchill Dew Point Humidity Wind Precip. Elev Updated Type
                   

Watches & Warnings

There are currently no watches in effect.